sensor_id;sensor_type;location;lat;lon;timestamp;P1;durP1;ratioP1;P2;durP2;ratioP2
21360;SDS011;10839;43.206;23.550;2024-01-15T00:01:11;10.25;;;4.65;;
21360;SDS011;10839;43.206;23.550;2024-01-15T00:03:37;11.40;;;5.75;;
21360;SDS011;10839;43.206;23.550;2024-01-15T00:06:03;14.27;;;8.75;;
21360;SDS011;10839;43.206;23.550;2024-01-15T00:08:29;9.98;;;5.75;;
21360;SDS011;10839;43.206;23.550;2024-01-15T00:10:54;10.38;;;5.55;;
21360;SDS011;10839;43.206;23.550;2024-01-15T00:13:20;9.00;;;5.15;;
21360;SDS011;10839;43.206;23.550;2024-01-15T00:15:45;7.40;;;4.72;;
21360;SDS011;10839;43.206;23.550;2024-01-15T00:18:10;11.05;;;5.40;;
21360;SDS011;10839;43.206;23.550;2024-01-15T00:20:36;8.73;;;4.70;;
21360;SDS011;10839;43.206;23.550;2024-01-15T00:23:01;11.10;;;5.82;;
21360;SDS011;10839;43.206;23.550;2024-01-15T00:25:27;9.65;;;6.20;;
21360;SDS011;10839;43.206;23.550;2024-01-15T00:27:52;10.00;;;5.35;;
21360;SDS011;10839;43.206;23.550;2024-01-15T00:30:18;10.25;;;5.93;;
21360;SDS011;10839;43.206;23.550;2024-01-15T00:32:44;10.90;;;5.57;;
21360;SDS011;10839;43.206;23.550;2024-01-15T00:35:09;11.63;;;5.63;;
21360;SDS011;10839;43.206;23.550;2024-01-15T00:37:35;12.68;;;5.50;;
21360;SDS011;10839;43.206;23.550;2024-01-15T00:40:00;9.15;;;5.45;;
21360;SDS011;10839;43.206;23.550;2024-01-15T00:42:26;7.70;;;4.47;;
21360;SDS011;10839;43.206;23.550;2024-01-15T00:44:51;8.75;;;5.38;;
21360;SDS011;10839;43.206;23.550;2024-01-15T00:47:18;10.15;;;5.55;;
21360;SDS011;10839;43.206;23.550;2024-01-15T00:49:43;10.30;;;5.28;;
21360;SDS011;10839;43.206;23.550;2024-01-15T00:52:09;11.32;;;5.70;;
21360;SDS011;10839;43.206;23.550;2024-01-15T00:54:35;11.45;;;5.95;;
21360;SDS011;10839;43.206;23.550;2024-01-15T00:57:01;10.55;;;5.45;;
21360;SDS011;10839;43.206;23.550;2024-01-15T00:59:26;10.93;;;4.85;;
21360;SDS011;10839;43.206;23.550;2024-01-15T01:01:51;12.00;;;6.35;;
21360;SDS011;10839;43.206;23.550;2024-01-15T01:04:17;12.85;;;6.22;;
21360;SDS011;10839;43.206;23.550;2024-01-15T01:06:42;12.60;;;6.90;;
21360;SDS011;10839;43.206;23.550;2024-01-15T01:09:08;12.00;;;6.75;;
21360;SDS011;10839;43.206;23.550;2024-01-15T01:11:33;10.32;;;5.70;;
21360;SDS011;10839;43.206;23.550;2024-01-15T01:13:59;9.52;;;5.57;;
21360;SDS011;10839;43.206;23.550;2024-01-15T01:16:25;11.15;;;5.53;;
21360;SDS011;10839;43.206;23.550;2024-01-15T01:18:51;9.18;;;5.13;;
21360;SDS011;10839;43.206;23.550;2024-01-15T01:21:16;11.55;;;5.50;;
21360;SDS011;10839;43.206;23.550;2024-01-15T01:23:42;10.32;;;4.95;;
21360;SDS011;10839;43.206;23.550;2024-01-15T01:26:07;9.45;;;5.00;;
21360;SDS011;10839;43.206;23.550;2024-01-15T01:28:33;9.90;;;5.05;;
21360;SDS011;10839;43.206;23.550;2024-01-15T01:30:59;10.25;;;4.60;;
21360;SDS011;10839;43.206;23.550;2024-01-15T01:33:25;6.28;;;3.85;;
21360;SDS011;10839;43.206;23.550;2024-01-15T01:35:50;6.90;;;4.05;;
21360;SDS011;10839;43.206;23.550;2024-01-15T01:38:16;9.00;;;4.80;;
21360;SDS011;10839;43.206;23.550;2024-01-15T01:40:41;9.35;;;4.80;;
21360;SDS011;10839;43.206;23.550;2024-01-15T01:43:08;9.82;;;4.47;;
21360;SDS011;10839;43.206;23.550;2024-01-15T01:45:34;11.40;;;4.60;;
21360;SDS011;10839;43.206;23.550;2024-01-15T01:48:00;8.65;;;4.28;;
21360;SDS011;10839;43.206;23.550;2024-01-15T01:50:26;7.43;;;4.28;;
21360;SDS011;10839;43.206;23.550;2024-01-15T01:52:51;8.40;;;4.68;;
21360;SDS011;10839;43.206;23.550;2024-01-15T01:55:17;10.15;;;4.85;;
21360;SDS011;10839;43.206;23.550;2024-01-15T01:57:44;8.32;;;4.22;;
21360;SDS011;10839;43.206;23.550;2024-01-15T02:00:09;8.95;;;4.80;;
21360;SDS011;10839;43.206;23.550;2024-01-15T02:02:38;8.20;;;4.78;;
21360;SDS011;10839;43.206;23.550;2024-01-15T02:05:04;11.57;;;5.60;;
21360;SDS011;10839;43.206;23.550;2024-01-15T02:07:31;12.55;;;6.28;;
21360;SDS011;10839;43.206;23.550;2024-01-15T02:09:59;11.75;;;6.35;;
21360;SDS011;10839;43.206;23.550;2024-01-15T02:12:25;11.30;;;5.65;;
21360;SDS011;10839;43.206;23.550;2024-01-15T02:14:51;13.90;;;7.28;;
21360;SDS011;10839;43.206;23.550;2024-01-15T02:17:16;13.00;;;6.70;;
21360;SDS011;10839;43.206;23.550;2024-01-15T02:19:42;12.48;;;6.32;;
21360;SDS011;10839;43.206;23.550;2024-01-15T02:22:08;11.40;;;6.50;;
21360;SDS011;10839;43.206;23.550;2024-01-15T02:24:33;11.45;;;6.25;;
21360;SDS011;10839;43.206;23.550;2024-01-15T02:26:59;13.25;;;6.68;;
21360;SDS011;10839;43.206;23.550;2024-01-15T02:29:24;12.82;;;7.22;;
21360;SDS011;10839;43.206;23.550;2024-01-15T02:31:50;12.98;;;6.40;;
21360;SDS011;10839;43.206;23.550;2024-01-15T02:34:15;12.63;;;6.45;;
21360;SDS011;10839;43.206;23.550;2024-01-15T02:36:41;13.25;;;6.53;;
21360;SDS011;10839;43.206;23.550;2024-01-15T02:39:06;13.75;;;7.53;;
21360;SDS011;10839;43.206;23.550;2024-01-15T02:41:32;11.95;;;7.43;;
21360;SDS011;10839;43.206;23.550;2024-01-15T02:43:57;11.43;;;6.43;;
21360;SDS011;10839;43.206;23.550;2024-01-15T02:46:23;14.43;;;6.18;;
21360;SDS011;10839;43.206;23.550;2024-01-15T02:48:48;12.27;;;6.13;;
21360;SDS011;10839;43.206;23.550;2024-01-15T02:51:14;12.18;;;6.68;;
21360;SDS011;10839;43.206;23.550;2024-01-15T02:53:39;14.20;;;7.65;;
21360;SDS011;10839;43.206;23.550;2024-01-15T02:56:06;13.65;;;6.93;;
21360;SDS011;10839;43.206;23.550;2024-01-15T02:58:32;14.35;;;7.47;;
21360;SDS011;10839;43.206;23.550;2024-01-15T03:00:57;11.57;;;6.45;;
21360;SDS011;10839;43.206;23.550;2024-01-15T03:03:23;14.93;;;7.43;;
21360;SDS011;10839;43.206;23.550;2024-01-15T03:05:50;12.02;;;6.25;;
21360;SDS011;10839;43.206;23.550;2024-01-15T03:08:15;14.10;;;6.15;;
21360;SDS011;10839;43.206;23.550;2024-01-15T03:10:41;8.35;;;4.60;;
21360;SDS011;10839;43.206;23.550;2024-01-15T03:13:06;9.20;;;5.25;;
21360;SDS011;10839;43.206;23.550;2024-01-15T03:15:31;9.93;;;5.15;;
21360;SDS011;10839;43.206;23.550;2024-01-15T03:17:57;11.73;;;6.30;;
21360;SDS011;10839;43.206;23.550;2024-01-15T03:20:22;10.40;;;6.05;;
21360;SDS011;10839;43.206;23.550;2024-01-15T03:22:48;11.70;;;6.53;;
21360;SDS011;10839;43.206;23.550;2024-01-15T03:25:14;14.63;;;6.63;;
21360;SDS011;10839;43.206;23.550;2024-01-15T03:27:39;14.52;;;6.95;;
21360;SDS011;10839;43.206;23.550;2024-01-15T03:30:05;12.35;;;6.22;;
21360;SDS011;10839;43.206;23.550;2024-01-15T03:32:31;10.45;;;5.20;;
21360;SDS011;10839;43.206;23.550;2024-01-15T03:34:56;9.98;;;5.53;;
21360;SDS011;10839;43.206;23.550;2024-01-15T03:37:22;12.70;;;6.47;;
21360;SDS011;10839;43.206;23.550;2024-01-15T03:39:48;11.48;;;6.45;;
21360;SDS011;10839;43.206;23.550;2024-01-15T03:42:13;9.68;;;5.90;;
21360;SDS011;10839;43.206;23.550;2024-01-15T03:44:39;14.32;;;6.95;;
21360;SDS011;10839;43.206;23.550;2024-01-15T03:47:05;9.63;;;4.63;;
21360;SDS011;10839;43.206;23.550;2024-01-15T03:49:30;9.75;;;5.28;;
21360;SDS011;10839;43.206;23.550;2024-01-15T03:51:56;15.85;;;6.20;;
21360;SDS011;10839;43.206;23.550;2024-01-15T03:54:21;10.60;;;5.50;;
21360;SDS011;10839;43.206;23.550;2024-01-15T03:56:47;10.70;;;5.72;;
21360;SDS011;10839;43.206;23.550;2024-01-15T03:59:12;11.25;;;5.57;;
21360;SDS011;10839;43.206;23.550;2024-01-15T04:01:38;13.55;;;6.38;;
21360;SDS011;10839;43.206;23.550;2024-01-15T04:04:03;13.73;;;6.53;;
21360;SDS011;10839;43.206;23.550;2024-01-15T04:06:29;14.10;;;6.95;;
21360;SDS011;10839;43.206;23.550;2024-01-15T04:08:54;12.82;;;6.88;;
21360;SDS011;10839;43.206;23.550;2024-01-15T04:11:20;15.05;;;7.35;;
21360;SDS011;10839;43.206;23.550;2024-01-15T04:13:45;14.52;;;8.07;;
21360;SDS011;10839;43.206;23.550;2024-01-15T04:16:11;13.68;;;7.75;;
21360;SDS011;10839;43.206;23.550;2024-01-15T04:18:36;15.50;;;7.68;;
21360;SDS011;10839;43.206;23.550;2024-01-15T04:21:03;14.07;;;6.70;;
21360;SDS011;10839;43.206;23.550;2024-01-15T04:23:30;13.23;;;7.28;;
21360;SDS011;10839;43.206;23.550;2024-01-15T04:25:55;13.80;;;7.53;;
21360;SDS011;10839;43.206;23.550;2024-01-15T04:28:21;13.77;;;7.53;;
21360;SDS011;10839;43.206;23.550;2024-01-15T04:30:46;16.55;;;8.13;;
21360;SDS011;10839;43.206;23.550;2024-01-15T04:33:12;14.77;;;7.22;;
21360;SDS011;10839;43.206;23.550;2024-01-15T04:35:37;19.67;;;8.75;;
21360;SDS011;10839;43.206;23.550;2024-01-15T04:38:03;17.25;;;8.15;;
21360;SDS011;10839;43.206;23.550;2024-01-15T04:40:28;15.57;;;7.85;;
21360;SDS011;10839;43.206;23.550;2024-01-15T04:42:54;12.75;;;6.80;;
21360;SDS011;10839;43.206;23.550;2024-01-15T04:45:20;12.13;;;6.75;;
21360;SDS011;10839;43.206;23.550;2024-01-15T04:47:48;14.68;;;7.70;;
21360;SDS011;10839;43.206;23.550;2024-01-15T04:50:14;12.93;;;6.88;;
21360;SDS011;10839;43.206;23.550;2024-01-15T04:52:39;14.18;;;6.97;;
21360;SDS011;10839;43.206;23.550;2024-01-15T04:55:05;14.18;;;7.68;;
21360;SDS011;10839;43.206;23.550;2024-01-15T04:57:30;14.43;;;7.53;;
21360;SDS011;10839;43.206;23.550;2024-01-15T04:59:56;14.30;;;7.68;;
21360;SDS011;10839;43.206;23.550;2024-01-15T05:02:21;16.52;;;8.02;;
21360;SDS011;10839;43.206;23.550;2024-01-15T05:04:47;20.60;;;10.35;;
21360;SDS011;10839;43.206;23.550;2024-01-15T05:07:12;14.27;;;8.15;;
21360;SDS011;10839;43.206;23.550;2024-01-15T05:09:38;16.52;;;8.55;;
21360;SDS011;10839;43.206;23.550;2024-01-15T05:12:03;18.13;;;8.32;;
21360;SDS011;10839;43.206;23.550;2024-01-15T05:14:29;17.80;;;8.02;;
21360;SDS011;10839;43.206;23.550;2024-01-15T05:16:55;17.67;;;8.70;;
21360;SDS011;10839;43.206;23.550;2024-01-15T05:19:20;16.45;;;8.77;;
21360;SDS011;10839;43.206;23.550;2024-01-15T05:21:45;15.05;;;7.85;;
21360;SDS011;10839;43.206;23.550;2024-01-15T05:24:11;16.58;;;7.93;;
21360;SDS011;10839;43.206;23.550;2024-01-15T05:26:36;16.58;;;8.82;;
21360;SDS011;10839;43.206;23.550;2024-01-15T05:29:02;22.42;;;10.82;;
21360;SDS011;10839;43.206;23.550;2024-01-15T05:31:27;22.70;;;11.02;;
21360;SDS011;10839;43.206;23.550;2024-01-15T05:33:53;18.52;;;9.38;;
21360;SDS011;10839;43.206;23.550;2024-01-15T05:36:18;16.33;;;7.85;;
21360;SDS011;10839;43.206;23.550;2024-01-15T05:38:44;13.40;;;7.28;;
21360;SDS011;10839;43.206;23.550;2024-01-15T05:41:09;14.93;;;6.53;;
21360;SDS011;10839;43.206;23.550;2024-01-15T05:43:35;11.30;;;5.88;;
21360;SDS011;10839;43.206;23.550;2024-01-15T05:46:00;10.57;;;6.45;;
21360;SDS011;10839;43.206;23.550;2024-01-15T05:48:26;10.55;;;5.53;;
21360;SDS011;10839;43.206;23.550;2024-01-15T05:50:51;9.45;;;5.72;;
21360;SDS011;10839;43.206;23.550;2024-01-15T05:53:17;11.60;;;6.28;;
21360;SDS011;10839;43.206;23.550;2024-01-15T05:55:42;17.75;;;8.80;;
21360;SDS011;10839;43.206;23.550;2024-01-15T05:58:08;13.95;;;7.40;;
21360;SDS011;10839;43.206;23.550;2024-01-15T06:00:33;18.70;;;9.77;;
21360;SDS011;10839;43.206;23.550;2024-01-15T06:03:00;16.85;;;8.30;;
21360;SDS011;10839;43.206;23.550;2024-01-15T06:05:25;19.60;;;9.63;;
21360;SDS011;10839;43.206;23.550;2024-01-15T06:07:51;20.15;;;10.07;;
21360;SDS011;10839;43.206;23.550;2024-01-15T06:10:17;22.80;;;10.63;;
21360;SDS011;10839;43.206;23.550;2024-01-15T06:12:43;25.90;;;13.07;;
21360;SDS011;10839;43.206;23.550;2024-01-15T06:15:08;28.65;;;13.98;;
21360;SDS011;10839;43.206;23.550;2024-01-15T06:17:34;20.30;;;10.02;;
21360;SDS011;10839;43.206;23.550;2024-01-15T06:19:59;26.77;;;13.18;;
21360;SDS011;10839;43.206;23.550;2024-01-15T06:22:25;13.40;;;6.22;;
21360;SDS011;10839;43.206;23.550;2024-01-15T06:24:50;31.75;;;14.32;;
21360;SDS011;10839;43.206;23.550;2024-01-15T06:27:16;14.63;;;7.40;;
21360;SDS011;10839;43.206;23.550;2024-01-15T06:29:44;10.57;;;6.97;;
21360;SDS011;10839;43.206;23.550;2024-01-15T06:32:12;12.18;;;7.03;;
21360;SDS011;10839;43.206;23.550;2024-01-15T06:34:38;14.25;;;8.43;;
21360;SDS011;10839;43.206;23.550;2024-01-15T06:37:04;16.80;;;8.98;;
21360;SDS011;10839;43.206;23.550;2024-01-15T06:39:29;17.80;;;9.10;;
21360;SDS011;10839;43.206;23.550;2024-01-15T06:41:55;8.25;;;4.63;;
21360;SDS011;10839;43.206;23.550;2024-01-15T06:44:20;11.93;;;7.70;;
21360;SDS011;10839;43.206;23.550;2024-01-15T06:46:47;14.82;;;6.88;;
21360;SDS011;10839;43.206;23.550;2024-01-15T06:49:12;23.05;;;12.48;;
21360;SDS011;10839;43.206;23.550;2024-01-15T06:51:38;17.98;;;9.00;;
21360;SDS011;10839;43.206;23.550;2024-01-15T06:54:04;17.15;;;7.68;;
21360;SDS011;10839;43.206;23.550;2024-01-15T06:56:29;15.95;;;8.63;;
21360;SDS011;10839;43.206;23.550;2024-01-15T06:58:56;14.65;;;7.85;;
21360;SDS011;10839;43.206;23.550;2024-01-15T07:01:21;13.55;;;7.70;;
21360;SDS011;10839;43.206;23.550;2024-01-15T07:03:47;52.13;;;20.13;;
21360;SDS011;10839;43.206;23.550;2024-01-15T07:06:12;27.73;;;12.32;;
21360;SDS011;10839;43.206;23.550;2024-01-15T07:08:39;9.13;;;4.43;;
21360;SDS011;10839;43.206;23.550;2024-01-15T07:11:05;10.07;;;5.80;;
21360;SDS011;10839;43.206;23.550;2024-01-15T07:13:31;9.23;;;5.07;;
21360;SDS011;10839;43.206;23.550;2024-01-15T07:15:56;9.77;;;5.90;;
21360;SDS011;10839;43.206;23.550;2024-01-15T07:18:22;6.78;;;3.05;;
21360;SDS011;10839;43.206;23.550;2024-01-15T07:20:48;7.43;;;3.38;;
21360;SDS011;10839;43.206;23.550;2024-01-15T07:23:14;3.90;;;2.10;;
21360;SDS011;10839;43.206;23.550;2024-01-15T07:25:39;4.20;;;2.13;;
21360;SDS011;10839;43.206;23.550;2024-01-15T07:28:05;5.13;;;2.30;;
21360;SDS011;10839;43.206;23.550;2024-01-15T07:30:30;3.47;;;2.25;;
21360;SDS011;10839;43.206;23.550;2024-01-15T07:32:56;5.15;;;2.40;;
21360;SDS011;10839;43.206;23.550;2024-01-15T07:35:21;3.78;;;2.10;;
21360;SDS011;10839;43.206;23.550;2024-01-15T07:37:47;2.90;;;1.70;;
21360;SDS011;10839;43.206;23.550;2024-01-15T07:40:12;3.63;;;1.98;;
21360;SDS011;10839;43.206;23.550;2024-01-15T07:42:38;5.10;;;3.25;;
21360;SDS011;10839;43.206;23.550;2024-01-15T07:45:04;4.22;;;2.42;;
21360;SDS011;10839;43.206;23.550;2024-01-15T07:47:31;6.88;;;2.50;;
21360;SDS011;10839;43.206;23.550;2024-01-15T07:49:57;3.28;;;1.95;;
21360;SDS011;10839;43.206;23.550;2024-01-15T07:52:22;7.57;;;3.58;;
21360;SDS011;10839;43.206;23.550;2024-01-15T07:54:48;9.43;;;4.85;;
21360;SDS011;10839;43.206;23.550;2024-01-15T07:57:13;7.70;;;4.65;;
21360;SDS011;10839;43.206;23.550;2024-01-15T07:59:38;3.38;;;2.20;;
21360;SDS011;10839;43.206;23.550;2024-01-15T08:02:05;5.10;;;2.03;;
21360;SDS011;10839;43.206;23.550;2024-01-15T08:04:31;5.88;;;2.80;;
21360;SDS011;10839;43.206;23.550;2024-01-15T08:06:56;3.92;;;2.17;;
21360;SDS011;10839;43.206;23.550;2024-01-15T08:09:22;7.13;;;3.03;;
21360;SDS011;10839;43.206;23.550;2024-01-15T08:11:48;5.57;;;3.05;;
21360;SDS011;10839;43.206;23.550;2024-01-15T08:14:14;6.75;;;4.25;;
21360;SDS011;10839;43.206;23.550;2024-01-15T08:16:40;4.65;;;3.00;;
21360;SDS011;10839;43.206;23.550;2024-01-15T08:19:06;7.05;;;4.25;;
21360;SDS011;10839;43.206;23.550;2024-01-15T08:21:31;6.10;;;3.90;;
21360;SDS011;10839;43.206;23.550;2024-01-15T08:23:57;4.10;;;2.63;;
21360;SDS011;10839;43.206;23.550;2024-01-15T08:26:23;3.97;;;2.67;;
21360;SDS011;10839;43.206;23.550;2024-01-15T08:28:49;4.65;;;2.88;;
21360;SDS011;10839;43.206;23.550;2024-01-15T08:31:15;5.18;;;2.90;;
21360;SDS011;10839;43.206;23.550;2024-01-15T08:33:41;3.83;;;2.13;;
21360;SDS011;10839;43.206;23.550;2024-01-15T08:36:06;4.10;;;1.85;;
21360;SDS011;10839;43.206;23.550;2024-01-15T08:38:32;3.72;;;2.20;;
21360;SDS011;10839;43.206;23.550;2024-01-15T08:40:57;4.10;;;2.10;;
21360;SDS011;10839;43.206;23.550;2024-01-15T08:43:25;3.22;;;1.90;;
21360;SDS011;10839;43.206;23.550;2024-01-15T08:45:52;6.68;;;2.88;;
21360;SDS011;10839;43.206;23.550;2024-01-15T08:48:17;5.80;;;1.80;;
21360;SDS011;10839;43.206;23.550;2024-01-15T08:50:43;3.28;;;2.10;;
21360;SDS011;10839;43.206;23.550;2024-01-15T08:53:11;3.35;;;2.40;;
21360;SDS011;10839;43.206;23.550;2024-01-15T08:55:37;4.07;;;2.05;;
21360;SDS011;10839;43.206;23.550;2024-01-15T08:58:03;3.08;;;1.50;;
21360;SDS011;10839;43.206;23.550;2024-01-15T09:00:28;4.13;;;2.00;;
21360;SDS011;10839;43.206;23.550;2024-01-15T09:02:55;2.20;;;1.80;;
21360;SDS011;10839;43.206;23.550;2024-01-15T09:05:21;2.35;;;1.50;;
21360;SDS011;10839;43.206;23.550;2024-01-15T09:07:47;2.88;;;1.80;;
21360;SDS011;10839;43.206;23.550;2024-01-15T09:10:13;6.95;;;3.10;;
21360;SDS011;10839;43.206;23.550;2024-01-15T09:12:39;3.03;;;2.10;;
21360;SDS011;10839;43.206;23.550;2024-01-15T09:15:05;3.80;;;1.60;;
21360;SDS011;10839;43.206;23.550;2024-01-15T09:17:34;3.47;;;1.80;;
21360;SDS011;10839;43.206;23.550;2024-01-15T09:19:59;2.47;;;1.50;;
21360;SDS011;10839;43.206;23.550;2024-01-15T09:22:25;3.20;;;1.75;;
21360;SDS011;10839;43.206;23.550;2024-01-15T09:24:51;3.28;;;1.70;;
21360;SDS011;10839;43.206;23.550;2024-01-15T09:27:16;6.35;;;1.70;;
21360;SDS011;10839;43.206;23.550;2024-01-15T09:29:41;1.90;;;1.17;;
21360;SDS011;10839;43.206;23.550;2024-01-15T09:32:08;4.43;;;1.73;;
21360;SDS011;10839;43.206;23.550;2024-01-15T09:34:34;5.55;;;2.35;;
21360;SDS011;10839;43.206;23.550;2024-01-15T09:36:59;3.03;;;1.90;;
21360;SDS011;10839;43.206;23.550;2024-01-15T09:39:25;2.92;;;1.45;;
21360;SDS011;10839;43.206;23.550;2024-01-15T09:41:52;2.40;;;1.70;;
21360;SDS011;10839;43.206;23.550;2024-01-15T09:44:18;2.47;;;2.03;;
21360;SDS011;10839;43.206;23.550;2024-01-15T09:46:45;4.53;;;2.50;;
21360;SDS011;10839;43.206;23.550;2024-01-15T09:49:11;2.95;;;1.85;;
21360;SDS011;10839;43.206;23.550;2024-01-15T09:51:37;4.00;;;2.17;;
21360;SDS011;10839;43.206;23.550;2024-01-15T09:54:04;4.53;;;1.73;;
21360;SDS011;10839;43.206;23.550;2024-01-15T09:56:30;3.38;;;1.60;;
21360;SDS011;10839;43.206;23.550;2024-01-15T09:58:56;3.60;;;1.85;;
21360;SDS011;10839;43.206;23.550;2024-01-15T10:01:22;4.90;;;1.35;;
21360;SDS011;10839;43.206;23.550;2024-01-15T10:03:49;2.25;;;1.35;;
21360;SDS011;10839;43.206;23.550;2024-01-15T10:06:15;4.40;;;2.10;;
21360;SDS011;10839;43.206;23.550;2024-01-15T10:08:48;2.40;;;1.48;;
21360;SDS011;10839;43.206;23.550;2024-01-15T10:11:15;9.18;;;5.10;;
21360;SDS011;10839;43.206;23.550;2024-01-15T10:13:43;5.97;;;1.75;;
21360;SDS011;10839;43.206;23.550;2024-01-15T10:16:09;4.97;;;2.97;;
21360;SDS011;10839;43.206;23.550;2024-01-15T10:18:35;5.60;;;1.92;;
21360;SDS011;10839;43.206;23.550;2024-01-15T10:21:10;4.30;;;2.42;;
21360;SDS011;10839;43.206;23.550;2024-01-15T10:23:36;3.95;;;2.13;;
21360;SDS011;10839;43.206;23.550;2024-01-15T10:26:02;4.72;;;2.30;;
21360;SDS011;10839;43.206;23.550;2024-01-15T10:28:29;5.80;;;2.83;;
21360;SDS011;10839;43.206;23.550;2024-01-15T10:30:56;7.25;;;2.40;;
21360;SDS011;10839;43.206;23.550;2024-01-15T10:33:23;4.60;;;2.60;;
21360;SDS011;10839;43.206;23.550;2024-01-15T10:35:55;5.22;;;2.20;;
21360;SDS011;10839;43.206;23.550;2024-01-15T10:38:22;4.30;;;2.00;;
21360;SDS011;10839;43.206;23.550;2024-01-15T10:40:52;2.95;;;1.60;;
21360;SDS011;10839;43.206;23.550;2024-01-15T10:43:18;5.18;;;1.95;;
21360;SDS011;10839;43.206;23.550;2024-01-15T10:45:47;4.15;;;1.70;;
21360;SDS011;10839;43.206;23.550;2024-01-15T10:48:13;5.85;;;3.10;;
21360;SDS011;10839;43.206;23.550;2024-01-15T10:50:41;1.80;;;1.25;;
21360;SDS011;10839;43.206;23.550;2024-01-15T10:53:06;2.15;;;1.30;;
21360;SDS011;10839;43.206;23.550;2024-01-15T10:55:35;0.88;;;0.85;;
21360;SDS011;10839;43.206;23.550;2024-01-15T10:58:02;4.72;;;1.20;;
21360;SDS011;10839;43.206;23.550;2024-01-15T11:00:29;1.90;;;1.27;;
21360;SDS011;10839;43.206;23.550;2024-01-15T11:02:55;4.45;;;1.35;;
21360;SDS011;10839;43.206;23.550;2024-01-15T11:05:22;1.98;;;1.20;;
21360;SDS011;10839;43.206;23.550;2024-01-15T11:07:48;3.03;;;1.42;;
21360;SDS011;10839;43.206;23.550;2024-01-15T11:13:14;4.60;;;1.58;;
21360;SDS011;10839;43.206;23.550;2024-01-15T11:18:34;5.68;;;2.60;;
21360;SDS011;10839;43.206;23.550;2024-01-15T11:26:29;5.50;;;2.33;;
21360;SDS011;10839;43.206;23.550;2024-01-15T11:29:01;5.38;;;2.97;;
21360;SDS011;10839;43.206;23.550;2024-01-15T11:34:03;7.80;;;2.38;;
21360;SDS011;10839;43.206;23.550;2024-01-15T11:42:01;5.75;;;3.00;;
21360;SDS011;10839;43.206;23.550;2024-01-15T11:44:30;4.30;;;2.40;;
21360;SDS011;10839;43.206;23.550;2024-01-15T11:47:00;6.60;;;2.90;;
21360;SDS011;10839;43.206;23.550;2024-01-15T11:52:39;4.65;;;2.67;;
21360;SDS011;10839;43.206;23.550;2024-01-15T11:58:13;5.63;;;3.00;;
21360;SDS011;10839;43.206;23.550;2024-01-15T12:00:43;5.22;;;3.20;;
21360;SDS011;10839;43.206;23.550;2024-01-15T12:03:10;9.68;;;2.97;;
21360;SDS011;10839;43.206;23.550;2024-01-15T12:05:39;6.70;;;2.88;;
21360;SDS011;10839;43.206;23.550;2024-01-15T12:08:05;5.85;;;2.90;;
21360;SDS011;10839;43.206;23.550;2024-01-15T12:10:35;12.60;;;3.30;;
21360;SDS011;10839;43.206;23.550;2024-01-15T12:13:13;4.50;;;2.63;;
21360;SDS011;10839;43.206;23.550;2024-01-15T12:15:39;4.55;;;2.72;;
21360;SDS011;10839;43.206;23.550;2024-01-15T12:18:07;3.90;;;2.38;;
21360;SDS011;10839;43.206;23.550;2024-01-15T12:20:33;3.65;;;2.10;;
21360;SDS011;10839;43.206;23.550;2024-01-15T12:23:00;4.88;;;2.40;;
21360;SDS011;10839;43.206;23.550;2024-01-15T12:25:26;4.80;;;2.30;;
21360;SDS011;10839;43.206;23.550;2024-01-15T12:27:52;4.15;;;2.30;;
21360;SDS011;10839;43.206;23.550;2024-01-15T12:30:19;8.48;;;3.83;;
21360;SDS011;10839;43.206;23.550;2024-01-15T12:32:44;3.90;;;2.33;;
21360;SDS011;10839;43.206;23.550;2024-01-15T12:35:11;4.50;;;3.05;;
21360;SDS011;10839;43.206;23.550;2024-01-15T12:37:37;4.25;;;2.15;;
21360;SDS011;10839;43.206;23.550;2024-01-15T12:40:05;5.38;;;2.63;;
21360;SDS011;10839;43.206;23.550;2024-01-15T12:42:37;4.93;;;2.75;;
21360;SDS011;10839;43.206;23.550;2024-01-15T12:45:05;7.10;;;3.25;;
21360;SDS011;10839;43.206;23.550;2024-01-15T12:47:31;6.03;;;2.40;;
21360;SDS011;10839;43.206;23.550;2024-01-15T12:49:57;4.72;;;2.60;;
21360;SDS011;10839;43.206;23.550;2024-01-15T12:52:26;5.78;;;3.50;;
21360;SDS011;10839;43.206;23.550;2024-01-15T12:54:52;6.70;;;2.60;;
21360;SDS011;10839;43.206;23.550;2024-01-15T12:57:17;5.50;;;2.45;;
21360;SDS011;10839;43.206;23.550;2024-01-15T12:59:43;4.05;;;2.58;;
21360;SDS011;10839;43.206;23.550;2024-01-15T13:02:10;5.05;;;2.63;;
21360;SDS011;10839;43.206;23.550;2024-01-15T13:04:39;5.18;;;2.70;;
21360;SDS011;10839;43.206;23.550;2024-01-15T13:07:05;6.53;;;2.42;;
21360;SDS011;10839;43.206;23.550;2024-01-15T13:09:32;3.65;;;2.50;;
21360;SDS011;10839;43.206;23.550;2024-01-15T13:11:58;5.90;;;2.65;;
21360;SDS011;10839;43.206;23.550;2024-01-15T13:14:24;6.03;;;2.63;;
21360;SDS011;10839;43.206;23.550;2024-01-15T13:16:49;5.68;;;3.33;;
21360;SDS011;10839;43.206;23.550;2024-01-15T13:19:15;4.47;;;2.42;;
21360;SDS011;10839;43.206;23.550;2024-01-15T13:21:40;6.32;;;3.22;;
21360;SDS011;10839;43.206;23.550;2024-01-15T13:24:06;6.45;;;2.28;;
21360;SDS011;10839;43.206;23.550;2024-01-15T13:26:32;6.03;;;2.50;;
21360;SDS011;10839;43.206;23.550;2024-01-15T13:29:05;3.95;;;2.33;;
21360;SDS011;10839;43.206;23.550;2024-01-15T13:31:34;6.85;;;2.92;;
21360;SDS011;10839;43.206;23.550;2024-01-15T13:34:00;4.90;;;2.70;;
21360;SDS011;10839;43.206;23.550;2024-01-15T13:36:26;5.60;;;2.60;;
21360;SDS011;10839;43.206;23.550;2024-01-15T13:38:52;3.65;;;2.33;;
21360;SDS011;10839;43.206;23.550;2024-01-15T13:41:19;5.10;;;2.20;;
21360;SDS011;10839;43.206;23.550;2024-01-15T13:43:50;6.05;;;2.25;;
21360;SDS011;10839;43.206;23.550;2024-01-15T13:46:18;2.97;;;1.88;;
21360;SDS011;10839;43.206;23.550;2024-01-15T13:48:43;4.05;;;2.00;;
21360;SDS011;10839;43.206;23.550;2024-01-15T13:51:09;3.30;;;1.95;;
21360;SDS011;10839;43.206;23.550;2024-01-15T13:53:37;4.47;;;2.13;;
21360;SDS011;10839;43.206;23.550;2024-01-15T13:56:03;3.13;;;2.00;;
21360;SDS011;10839;43.206;23.550;2024-01-15T13:58:30;3.60;;;1.80;;
21360;SDS011;10839;43.206;23.550;2024-01-15T14:00:55;4.47;;;1.65;;
21360;SDS011;10839;43.206;23.550;2024-01-15T14:03:21;8.00;;;2.65;;
21360;SDS011;10839;43.206;23.550;2024-01-15T14:05:47;6.88;;;3.00;;
21360;SDS011;10839;43.206;23.550;2024-01-15T14:08:12;2.67;;;1.80;;
21360;SDS011;10839;43.206;23.550;2024-01-15T14:10:38;2.50;;;1.20;;
21360;SDS011;10839;43.206;23.550;2024-01-15T14:13:03;2.35;;;1.25;;
21360;SDS011;10839;43.206;23.550;2024-01-15T14:15:29;2.70;;;1.17;;
21360;SDS011;10839;43.206;23.550;2024-01-15T14:17:54;3.13;;;2.00;;
21360;SDS011;10839;43.206;23.550;2024-01-15T14:20:20;4.10;;;2.30;;
21360;SDS011;10839;43.206;23.550;2024-01-15T14:22:45;3.95;;;1.85;;
21360;SDS011;10839;43.206;23.550;2024-01-15T14:25:11;9.50;;;3.33;;
21360;SDS011;10839;43.206;23.550;2024-01-15T14:27:36;21.60;;;8.35;;
21360;SDS011;10839;43.206;23.550;2024-01-15T14:30:02;11.20;;;4.00;;
21360;SDS011;10839;43.206;23.550;2024-01-15T14:32:28;8.43;;;3.08;;
21360;SDS011;10839;43.206;23.550;2024-01-15T14:34:54;4.75;;;2.20;;
21360;SDS011;10839;43.206;23.550;2024-01-15T14:37:21;7.47;;;3.60;;
21360;SDS011;10839;43.206;23.550;2024-01-15T14:39:47;5.90;;;2.67;;
21360;SDS011;10839;43.206;23.550;2024-01-15T14:42:12;4.30;;;2.03;;
21360;SDS011;10839;43.206;23.550;2024-01-15T14:44:38;8.00;;;4.15;;
21360;SDS011;10839;43.206;23.550;2024-01-15T14:47:06;6.28;;;3.15;;